createdAt,value
2022-08-10T00:01:54.213Z,19.40
2022-08-10T00:04:25.024Z,19.30
2022-08-10T00:06:54.461Z,19.30
2022-08-10T00:09:22.956Z,19.30
2022-08-10T00:11:49.961Z,19.20
2022-08-10T00:14:17.313Z,19.20
2022-08-10T00:16:44.148Z,19.20
2022-08-10T00:19:11.053Z,19.20
2022-08-10T00:21:37.890Z,19.20
2022-08-10T00:24:04.920Z,19.20
2022-08-10T00:27:50.020Z,19.10
2022-08-10T00:29:19.225Z,19.10
2022-08-10T00:31:57.794Z,19.00
2022-08-10T00:34:26.133Z,19.10
2022-08-10T00:36:52.903Z,19.00
2022-08-10T00:39:19.870Z,19.00
2022-08-10T00:41:46.867Z,19.00
2022-08-10T00:44:34.401Z,18.90
2022-08-10T00:47:01.187Z,18.90
2022-08-10T00:49:28.803Z,18.90
2022-08-10T00:51:55.861Z,18.80
2022-08-10T00:54:24.033Z,18.80
2022-08-10T00:57:16.690Z,18.80
2022-08-10T00:59:59.433Z,18.80
2022-08-10T01:02:26.747Z,18.70
2022-08-10T01:04:59.937Z,18.70
2022-08-10T01:08:01.386Z,18.70
2022-08-10T01:10:59.546Z,18.60
2022-08-10T01:13:38.706Z,18.50
2022-08-10T01:16:20.737Z,18.50
2022-08-10T01:19:28.546Z,18.50
2022-08-10T01:21:57.010Z,18.50
2022-08-10T01:24:35.721Z,18.50
2022-08-10T01:27:39.318Z,18.40
2022-08-10T01:30:08.804Z,18.40
2022-08-10T01:32:54.483Z,18.40
2022-08-10T01:35:40.350Z,18.40
2022-08-10T01:38:39.239Z,18.40
2022-08-10T01:41:14.307Z,18.30
2022-08-10T01:43:46.479Z,18.30
2022-08-10T01:46:15.473Z,18.30
2022-08-10T01:48:48.536Z,18.20
2022-08-10T01:51:26.405Z,18.20
2022-08-10T01:53:57.836Z,18.20
2022-08-10T01:56:28.225Z,18.20
2022-08-10T01:59:34.920Z,18.10
2022-08-10T02:02:08.129Z,18.10
2022-08-10T02:04:38.102Z,18.10
2022-08-10T02:07:08.621Z,18.10
2022-08-10T02:09:40.338Z,18.00
2022-08-10T02:12:11.198Z,18.00
2022-08-10T02:14:46.794Z,18.00
2022-08-10T02:17:57.375Z,18.00
2022-08-10T02:20:12.645Z,17.90
2022-08-10T02:22:41.135Z,17.90
2022-08-10T02:25:09.787Z,17.90
2022-08-10T02:27:58.169Z,17.80
2022-08-10T02:30:26.744Z,17.80
2022-08-10T02:32:54.838Z,17.80
2022-08-10T02:35:22.856Z,17.80
2022-08-10T02:37:59.679Z,17.70
2022-08-10T02:45:13.916Z,17.70
2022-08-10T02:45:22.445Z,17.70
2022-08-10T02:46:36.788Z,17.70
2022-08-10T02:49:05.321Z,17.70
2022-08-10T02:52:06.497Z,17.60
2022-08-10T02:54:48.829Z,17.60
2022-08-10T02:57:27.979Z,17.60
2022-08-10T03:00:00.097Z,17.50
2022-08-10T03:02:37.746Z,17.50
2022-08-10T03:05:11.357Z,17.50
2022-08-10T03:07:46.218Z,17.40
2022-08-10T03:10:17.410Z,17.40
2022-08-10T03:12:49.272Z,17.40
2022-08-10T03:15:19.498Z,17.40
2022-08-10T03:17:58.178Z,17.40
2022-08-10T03:20:37.247Z,17.40
2022-08-10T03:23:16.429Z,17.40
2022-08-10T03:25:53.480Z,17.30
2022-08-10T03:28:27.563Z,17.30
2022-08-10T03:30:55.478Z,17.30
2022-08-10T03:33:26.313Z,17.30
2022-08-10T03:36:43.572Z,17.30
2022-08-10T03:38:40.848Z,17.30
2022-08-10T03:41:16.309Z,17.20
2022-08-10T03:43:47.525Z,17.20
2022-08-10T03:46:18.253Z,17.20
2022-08-10T03:48:49.131Z,17.20
2022-08-10T03:51:19.409Z,17.20
2022-08-10T03:54:04.840Z,17.20
2022-08-10T03:56:39.851Z,17.10
2022-08-10T03:59:11.800Z,17.10
2022-08-10T04:02:46.227Z,17.10
2022-08-10T04:04:26.367Z,17.10
2022-08-10T04:06:56.185Z,17.10
2022-08-10T04:09:43.480Z,17.10
2022-08-10T04:12:12.602Z,17.10
2022-08-10T04:14:50.563Z,17.10
2022-08-10T04:18:05.222Z,17.20
2022-08-10T04:20:39.150Z,17.20
2022-08-10T04:23:09.700Z,17.20
2022-08-10T04:25:38.350Z,17.30
2022-08-10T04:28:06.873Z,17.30
2022-08-10T04:30:35.612Z,17.30
2022-08-10T04:33:05.340Z,17.20
2022-08-10T04:35:34.095Z,17.20
2022-08-10T04:38:03.142Z,17.20
2022-08-10T04:40:31.238Z,17.30
2022-08-10T04:43:02.199Z,17.20
2022-08-10T04:45:49.201Z,17.20
2022-08-10T04:48:41.450Z,17.30
2022-08-10T04:51:04.056Z,17.30
2022-08-10T04:53:31.363Z,17.20
2022-08-10T04:55:58.328Z,17.20
2022-08-10T04:58:25.090Z,17.20
2022-08-10T05:00:52.631Z,17.20
2022-08-10T05:03:19.508Z,17.20
2022-08-10T05:05:46.267Z,17.20
2022-08-10T05:08:17.823Z,17.10
2022-08-10T05:10:44.858Z,17.20
2022-08-10T05:13:11.786Z,17.20
2022-08-10T05:15:38.730Z,17.20
2022-08-10T05:18:09.714Z,17.20
2022-08-10T05:20:38.917Z,17.20
2022-08-10T05:23:05.761Z,17.20
2022-08-10T05:25:32.915Z,17.20
2022-08-10T05:28:06.624Z,17.30
2022-08-10T05:30:34.349Z,17.30
2022-08-10T05:33:05.091Z,17.30
2022-08-10T05:35:56.547Z,17.30
2022-08-10T05:38:27.492Z,17.30
2022-08-10T05:40:54.721Z,17.40
2022-08-10T05:43:22.560Z,17.40
2022-08-10T05:46:17.476Z,17.50
2022-08-10T05:48:42.151Z,17.50
2022-08-10T05:51:26.469Z,17.50
2022-08-10T05:54:03.114Z,17.50
2022-08-10T05:56:56.612Z,17.50
2022-08-10T06:00:10.793Z,17.60
2022-08-10T06:02:43.767Z,17.60
2022-08-10T06:05:30.954Z,17.70
2022-08-10T06:08:01.819Z,17.80
2022-08-10T06:10:32.160Z,17.90
2022-08-10T06:13:29.950Z,18.00
2022-08-10T06:16:08.682Z,18.00
2022-08-10T06:18:37.304Z,18.10
2022-08-10T06:21:05.545Z,18.10
2022-08-10T06:23:33.122Z,18.10
2022-08-10T06:26:09.553Z,18.20
2022-08-10T06:28:52.952Z,18.30
2022-08-10T06:31:49.008Z,18.30
2022-08-10T06:34:25.947Z,18.50
2022-08-10T06:36:57.490Z,18.50
2022-08-10T06:39:40.069Z,18.60
2022-08-10T06:42:16.699Z,18.60
2022-08-10T06:44:56.792Z,18.70
2022-08-10T06:47:29.995Z,18.70
2022-08-10T06:50:05.021Z,18.80
2022-08-10T06:52:37.001Z,18.90
2022-08-10T06:55:08.216Z,18.90
2022-08-10T06:57:37.942Z,19.00
2022-08-10T07:00:06.592Z,19.10
2022-08-10T07:02:56.609Z,19.10
2022-08-10T07:05:28.001Z,19.20
2022-08-10T07:07:59.194Z,19.20
2022-08-10T07:10:41.264Z,19.30
2022-08-10T07:13:15.795Z,19.40
2022-08-10T07:16:03.662Z,19.50
2022-08-10T07:18:31.741Z,19.60
2022-08-10T07:21:02.075Z,19.70
2022-08-10T07:23:59.531Z,19.80
2022-08-10T07:26:20.147Z,19.90
2022-08-10T07:28:50.932Z,19.90
2022-08-10T07:31:29.763Z,20.00
2022-08-10T07:34:11.505Z,20.10
2022-08-10T07:36:40.652Z,20.10
2022-08-10T07:39:10.573Z,20.20
2022-08-10T07:41:41.558Z,20.30
2022-08-10T07:44:11.644Z,20.40
2022-08-10T07:46:47.087Z,20.50
2022-08-10T07:49:23.945Z,20.60
2022-08-10T07:51:54.645Z,20.80
2022-08-10T07:54:26.277Z,20.90
2022-08-10T07:56:57.595Z,20.90
2022-08-10T07:59:35.755Z,21.00
2022-08-10T08:02:05.194Z,21.00
2022-08-10T08:04:33.516Z,21.10
2022-08-10T08:07:04.391Z,21.20
2022-08-10T08:09:32.369Z,21.30
2022-08-10T08:12:00.457Z,21.30
2022-08-10T08:14:28.497Z,21.40
2022-08-10T08:16:58.638Z,21.50
2022-08-10T08:19:28.473Z,21.70
2022-08-10T08:24:04.780Z,21.70
2022-08-10T08:24:56.424Z,21.90
2022-08-10T08:27:24.447Z,22.00
2022-08-10T08:29:52.288Z,22.00
2022-08-10T08:32:26.547Z,22.10
2022-08-10T08:35:05.119Z,22.20
2022-08-10T08:38:33.407Z,22.20
2022-08-10T08:40:27.194Z,22.30
2022-08-10T08:43:21.680Z,22.50
2022-08-10T08:46:28.642Z,22.60
2022-08-10T08:50:04.788Z,22.70
2022-08-10T08:52:27.235Z,22.80
2022-08-10T08:56:02.945Z,22.90
2022-08-10T08:58:29.920Z,23.00
2022-08-10T09:01:23.466Z,23.10
2022-08-10T09:04:19.828Z,23.30
2022-08-10T09:08:01.153Z,23.40
2022-08-10T09:10:25.777Z,23.40
2022-08-10T09:13:08.329Z,23.60
2022-08-10T09:15:51.353Z,23.60
2022-08-10T09:18:31.356Z,23.80
2022-08-10T09:21:06.304Z,24.00
2022-08-10T09:24:20.196Z,24.10
2022-08-10T09:26:51.247Z,24.30
2022-08-10T09:29:22.972Z,24.40
2022-08-10T09:36:15.818Z,24.50
2022-08-10T09:36:20.579Z,24.60
2022-08-10T09:38:43.978Z,24.60
2022-08-10T09:41:23.310Z,24.80
2022-08-10T09:44:05.813Z,24.80
2022-08-10T09:46:59.134Z,24.90
2022-08-10T09:49:57.838Z,25.00
2022-08-10T09:52:58.944Z,25.20
2022-08-10T09:56:19.337Z,25.30
2022-08-10T10:00:01.493Z,25.40
2022-08-10T10:02:49.305Z,25.50
2022-08-10T10:05:40.112Z,25.70
2022-08-10T10:08:23.367Z,25.90
2022-08-10T10:11:16.604Z,26.00
2022-08-10T10:14:09.264Z,26.10
2022-08-10T10:17:03.913Z,26.10
2022-08-10T10:20:09.309Z,26.20
2022-08-10T10:22:59.253Z,26.30
2022-08-10T10:25:51.677Z,26.40
2022-08-10T10:29:24.771Z,26.50
2022-08-10T10:31:50.839Z,26.60
2022-08-10T10:34:17.680Z,26.70
2022-08-10T10:36:45.865Z,26.80
2022-08-10T10:39:15.369Z,26.90
2022-08-10T10:42:04.689Z,27.00
2022-08-10T10:45:08.915Z,27.10
2022-08-10T10:47:57.582Z,27.30
2022-08-10T10:50:55.189Z,27.30
2022-08-10T10:53:44.416Z,27.50
2022-08-10T10:56:39.763Z,27.60
2022-08-10T10:59:56.911Z,27.60
2022-08-10T11:02:53.909Z,27.70
2022-08-10T11:05:24.255Z,27.90
2022-08-10T11:08:03.118Z,28.10
2022-08-10T11:10:38.579Z,28.10
2022-08-10T11:14:23.113Z,28.20
2022-08-10T11:16:17.963Z,28.20
2022-08-10T11:18:59.898Z,28.30
2022-08-10T11:22:07.960Z,28.40
2022-08-10T11:24:50.451Z,28.40
2022-08-10T11:27:39.027Z,28.40
2022-08-10T11:30:09.301Z,28.50
2022-08-10T11:32:58.531Z,28.70
2022-08-10T11:35:37.053Z,28.80
2022-08-10T11:38:31.926Z,28.90
2022-08-10T11:42:09.927Z,28.90
2022-08-10T11:44:25.353Z,29.10
2022-08-10T11:47:21.887Z,29.10
2022-08-10T11:50:08.874Z,29.10
2022-08-10T11:53:13.300Z,29.10
2022-08-10T11:55:44.478Z,29.30
2022-08-10T11:58:31.848Z,29.50
2022-08-10T12:01:05.130Z,29.50
2022-08-10T12:03:34.951Z,29.60
2022-08-10T12:06:04.337Z,29.60
2022-08-10T12:10:07.420Z,29.70
2022-08-10T12:11:25.473Z,29.80
2022-08-10T12:14:20.130Z,29.80
2022-08-10T12:16:52.635Z,29.80
2022-08-10T12:19:31.282Z,29.80
2022-08-10T12:22:24.968Z,30.00
2022-08-10T12:25:04.553Z,30.10
2022-08-10T12:27:41.751Z,30.20
2022-08-10T12:30:14.459Z,30.30
2022-08-10T12:33:04.730Z,30.30
2022-08-10T12:35:56.040Z,30.30
2022-08-10T12:38:53.315Z,30.40
2022-08-10T12:41:41.586Z,30.60
2022-08-10T12:44:19.034Z,30.60
2022-08-10T12:46:59.303Z,30.90
2022-08-10T12:49:26.030Z,31.00
2022-08-10T12:52:16.826Z,30.90
2022-08-10T12:54:46.023Z,30.90
2022-08-10T12:57:16.283Z,31.00
2022-08-10T12:59:49.940Z,31.00
2022-08-10T13:02:35.075Z,31.00
2022-08-10T13:05:07.132Z,31.00
2022-08-10T13:08:24.346Z,31.30
2022-08-10T13:10:23.432Z,31.30
2022-08-10T13:12:54.274Z,31.40
2022-08-10T13:15:49.912Z,31.50
2022-08-10T13:18:18.718Z,31.40
2022-08-10T13:20:54.958Z,31.50
2022-08-10T13:23:26.949Z,31.60
2022-08-10T13:25:58.174Z,31.90
2022-08-10T13:29:02.115Z,31.90
2022-08-10T13:32:04.415Z,32.00
2022-08-10T13:34:42.984Z,32.00
2022-08-10T13:37:20.224Z,31.90
2022-08-10T13:39:57.721Z,32.10
2022-08-10T13:42:30.782Z,32.00
2022-08-10T13:45:10.173Z,32.00
2022-08-10T13:47:48.862Z,31.90
2022-08-10T13:50:35.404Z,31.90
2022-08-10T13:53:15.257Z,32.10
2022-08-10T13:55:53.863Z,32.40
2022-08-10T13:58:30.496Z,32.30
2022-08-10T14:01:03.027Z,32.50
2022-08-10T14:03:35.452Z,32.70
2022-08-10T14:06:05.355Z,32.80
2022-08-10T14:08:33.076Z,32.80
2022-08-10T14:11:12.430Z,32.80
2022-08-10T14:14:04.605Z,32.60
2022-08-10T14:16:33.181Z,32.70
2022-08-10T14:19:10.202Z,32.70
2022-08-10T14:21:41.632Z,32.70
2022-08-10T14:24:21.658Z,32.80
2022-08-10T14:26:49.509Z,32.60
2022-08-10T14:29:19.871Z,32.80
2022-08-10T14:32:01.980Z,32.80
2022-08-10T14:36:16.375Z,32.70
2022-08-10T14:37:38.574Z,32.80
2022-08-10T14:40:11.516Z,32.90
2022-08-10T14:43:03.464Z,32.90
2022-08-10T14:45:34.602Z,33.20
2022-08-10T14:48:13.214Z,33.20
2022-08-10T14:50:54.986Z,33.30
2022-08-10T14:53:26.836Z,33.20
2022-08-10T14:56:02.323Z,33.00
2022-08-10T14:59:06.017Z,33.10
2022-08-10T15:02:38.788Z,33.10
2022-08-10T15:04:30.362Z,33.40
2022-08-10T15:07:03.086Z,33.50
2022-08-10T15:09:59.310Z,33.40
2022-08-10T15:12:25.010Z,33.60
2022-08-10T15:15:00.871Z,33.90
2022-08-10T15:17:34.904Z,33.80
2022-08-10T15:20:13.407Z,33.90
2022-08-10T15:22:50.253Z,33.80
2022-08-10T15:25:25.459Z,33.60
2022-08-10T15:28:06.644Z,33.50
2022-08-10T15:30:48.638Z,33.80
2022-08-10T15:34:01.899Z,33.90
2022-08-10T15:37:30.487Z,33.80
2022-08-10T15:40:25.914Z,34.00
2022-08-10T15:43:05.484Z,34.20
2022-08-10T15:45:39.530Z,34.30
2022-08-10T15:48:07.066Z,34.30
2022-08-10T15:50:43.713Z,34.40
2022-08-10T15:53:17.057Z,34.40
2022-08-10T15:55:54.742Z,34.40
2022-08-10T15:58:38.860Z,34.20
2022-08-10T16:02:13.027Z,34.30
2022-08-10T16:04:15.102Z,34.00
2022-08-10T16:06:48.560Z,34.10
2022-08-10T16:10:22.602Z,33.80
2022-08-10T16:12:29.338Z,33.80
2022-08-10T16:15:03.307Z,34.00
2022-08-10T16:17:55.747Z,34.00
2022-08-10T16:20:33.180Z,34.20
2022-08-10T16:23:18.874Z,34.30
2022-08-10T16:25:53.543Z,34.20
2022-08-10T16:28:51.607Z,34.20
2022-08-10T16:31:22.384Z,33.90
2022-08-10T16:33:55.316Z,34.10
2022-08-10T16:36:30.973Z,34.30
2022-08-10T16:38:58.685Z,34.20
2022-08-10T16:42:03.869Z,33.80
2022-08-10T16:44:18.456Z,33.60
2022-08-10T16:46:46.474Z,33.60
2022-08-10T16:49:16.443Z,33.60
2022-08-10T16:51:47.520Z,33.60
2022-08-10T16:54:20.644Z,33.40
2022-08-10T16:56:51.784Z,33.40
2022-08-10T16:59:24.407Z,33.00
2022-08-10T17:01:53.802Z,32.60
2022-08-10T17:04:23.495Z,32.20
2022-08-10T17:07:00.795Z,31.80
2022-08-10T17:09:30.464Z,31.40
2022-08-10T17:11:59.146Z,31.10
2022-08-10T17:14:28.511Z,30.80
2022-08-10T17:17:00.336Z,30.60
2022-08-10T17:19:29.816Z,30.30
2022-08-10T17:21:58.824Z,30.00
2022-08-10T17:24:35.261Z,30.00
2022-08-10T17:28:05.635Z,29.80
2022-08-10T17:30:04.901Z,29.70
2022-08-10T17:33:00.106Z,29.60
2022-08-10T17:35:30.669Z,29.40
2022-08-10T17:38:02.798Z,29.30
2022-08-10T17:40:32.999Z,29.10
2022-08-10T17:43:01.101Z,29.00
2022-08-10T17:45:47.982Z,28.90
2022-08-10T17:48:18.433Z,28.70
2022-08-10T17:50:50.235Z,28.70
2022-08-10T17:53:22.337Z,28.60
2022-08-10T17:55:54.904Z,28.50
2022-08-10T17:58:26.440Z,28.50
2022-08-10T18:01:38.601Z,28.40
2022-08-10T18:03:54.358Z,28.30
2022-08-10T18:06:22.982Z,28.20
2022-08-10T18:08:55.866Z,28.10
2022-08-10T18:11:26.243Z,28.10
2022-08-10T18:13:59.230Z,28.00
2022-08-10T18:16:30.303Z,27.90
2022-08-10T18:19:02.978Z,27.80
2022-08-10T18:21:32.196Z,27.80
2022-08-10T18:24:07.540Z,27.60
2022-08-10T18:26:37.147Z,27.60
2022-08-10T18:29:10.892Z,27.50
2022-08-10T18:31:41.385Z,27.50
2022-08-10T18:34:13.067Z,27.30
2022-08-10T18:36:45.263Z,27.30
2022-08-10T18:39:15.769Z,27.10
2022-08-10T18:42:05.137Z,27.10
2022-08-10T18:44:37.387Z,27.00
2022-08-10T18:47:10.047Z,26.90
2022-08-10T18:49:36.741Z,26.80
2022-08-10T18:52:12.429Z,26.80
2022-08-10T18:54:48.769Z,26.70
2022-08-10T18:57:40.135Z,26.50
2022-08-10T19:00:19.192Z,26.50
2022-08-10T19:03:21.575Z,26.40
2022-08-10T19:05:57.924Z,26.30
2022-08-10T19:08:51.439Z,26.10
2022-08-10T19:11:34.881Z,26.10
2022-08-10T19:14:19.726Z,26.00
2022-08-10T19:17:10.031Z,25.90
2022-08-10T19:19:45.558Z,25.80
2022-08-10T19:22:27.991Z,25.70
2022-08-10T19:25:14.214Z,25.70
2022-08-10T19:27:52.883Z,25.60
2022-08-10T19:30:29.137Z,25.50
2022-08-10T19:33:13.539Z,25.50
2022-08-10T19:36:03.616Z,25.40
2022-08-10T19:38:52.570Z,25.30
2022-08-10T19:41:32.498Z,25.30
2022-08-10T19:44:51.287Z,25.20
2022-08-10T19:47:30.138Z,25.10
2022-08-10T19:49:59.692Z,25.10
2022-08-10T19:52:33.655Z,25.00
2022-08-10T19:55:28.588Z,24.90
2022-08-10T19:58:04.780Z,24.90
2022-08-10T20:00:48.255Z,24.90
2022-08-10T20:03:35.138Z,24.80
2022-08-10T20:06:28.388Z,24.80
2022-08-10T20:09:08.413Z,24.70
2022-08-10T20:11:50.285Z,24.70
2022-08-10T20:14:43.111Z,24.60
2022-08-10T20:17:55.098Z,24.50
2022-08-10T20:20:31.919Z,24.50
2022-08-10T20:23:11.358Z,24.40
2022-08-10T20:25:42.398Z,24.40
2022-08-10T20:28:20.013Z,24.40
2022-08-10T20:31:21.561Z,24.40
2022-08-10T20:34:01.471Z,24.30
2022-08-10T20:36:31.686Z,24.30
2022-08-10T20:39:16.945Z,24.20
2022-08-10T20:42:06.447Z,24.10
2022-08-10T20:44:56.924Z,24.10
2022-08-10T20:47:36.934Z,24.10
2022-08-10T20:50:31.267Z,24.00
2022-08-10T20:53:03.362Z,23.90
2022-08-10T20:55:54.938Z,23.90
2022-08-10T20:58:49.797Z,23.90
2022-08-10T21:02:01.497Z,23.80
2022-08-10T21:04:53.756Z,23.70
2022-08-10T21:08:02.604Z,23.70
2022-08-10T21:11:00.178Z,23.70
2022-08-10T21:13:45.591Z,23.60
2022-08-10T21:16:23.721Z,23.50
2022-08-10T21:19:00.036Z,23.50
2022-08-10T21:22:11.826Z,23.40
2022-08-10T21:24:52.205Z,23.40
2022-08-10T21:27:26.974Z,23.30
2022-08-10T21:30:09.175Z,23.30
2022-08-10T21:32:57.351Z,23.20
2022-08-10T21:35:39.320Z,23.20
2022-08-10T21:38:21.423Z,23.10
2022-08-10T21:41:17.790Z,23.10
2022-08-10T21:44:24.134Z,23.00
2022-08-10T21:47:41.918Z,23.00
2022-08-10T21:50:43.341Z,22.90
2022-08-10T21:53:46.155Z,22.90
2022-08-10T21:56:50.338Z,22.80
2022-08-10T21:59:39.336Z,22.80
2022-08-10T22:02:31.926Z,22.70
2022-08-10T22:05:20.165Z,22.70
2022-08-10T22:08:15.004Z,22.70
2022-08-10T22:11:08.983Z,22.70
2022-08-10T22:14:04.926Z,22.60
2022-08-10T22:17:59.704Z,22.60
2022-08-10T22:20:30.453Z,22.50
2022-08-10T22:23:38.821Z,22.50
2022-08-10T22:27:01.121Z,22.50
2022-08-10T22:30:02.065Z,22.40
2022-08-10T22:33:25.504Z,22.40
2022-08-10T22:36:35.397Z,22.30
2022-08-10T22:40:12.354Z,22.30
2022-08-10T22:42:58.187Z,22.20
2022-08-10T22:45:44.791Z,22.20
2022-08-10T22:48:30.643Z,22.10
2022-08-10T22:51:08.018Z,22.10
2022-08-10T22:53:54.944Z,22.00
2022-08-10T22:56:41.337Z,22.00
2022-08-10T22:59:09.722Z,22.00
2022-08-10T23:02:08.117Z,21.90
2022-08-10T23:04:44.736Z,21.90
2022-08-10T23:07:17.599Z,21.90
2022-08-10T23:09:58.635Z,21.80
2022-08-10T23:12:50.935Z,21.80
2022-08-10T23:15:57.063Z,21.80
2022-08-10T23:19:06.158Z,21.70
2022-08-10T23:22:04.507Z,21.70
2022-08-10T23:24:47.922Z,21.70
2022-08-10T23:27:37.552Z,21.60
2022-08-10T23:30:10.426Z,21.60
2022-08-10T23:32:41.564Z,21.50
2022-08-10T23:36:29.425Z,21.50
2022-08-10T23:38:07.130Z,21.50
2022-08-10T23:40:35.299Z,21.40
2022-08-10T23:43:04.185Z,21.40
2022-08-10T23:45:52.334Z,21.30
2022-08-10T23:48:39.587Z,21.30
2022-08-10T23:51:16.410Z,21.20
2022-08-10T23:53:46.409Z,21.20
2022-08-10T23:56:17.194Z,21.20
2022-08-10T23:58:47.179Z,21.10
